Yuma, AZ (85365)

8:31 AM MST on July 24, 2016 (GMT -0700)
YID South Gila | | Change Station

Elev 151 ft 32.69 °N, 114.51 °W | Updated 47 seconds ago

Mostly Cloudy
Mostly Cloudy
91.6 °F
Feels Like 97 °F
N
22.4
Wind Variable Wind from SSE
Gusts 24.0 mph

Today
High -- | Low -- °F
--% Chance of Precip.
Yesterday
High -- | Low -- °F
Precip. -- in
Pressure 29.84 in
Visibility 10.0 miles
Clouds Mostly Cloudy 1500 ft
Heat Index 97 °F
Dew Point 70 °F
Humidity 49%
Rainfall 0.00 in
Snow Depth Not available.
5:47 AM 7:41 PM
Waning Gibbous, 75% visible
METAR KNYL 241457Z AUTO 16028G34KT 10SM BKN015 33/22 A2985 RMK AO2 PK WND 16038/1429 SLP104 T03280222 53030 $
Pressure 29.84 in
Visibility 10.0 miles
Clouds Mostly Cloudy 1500 ft
Heat Index 97 °F
Dew Point 70 °F
Humidity 49%
Rainfall 0.00 in
Snow Depth Not available.
5:47 AM 7:41 PM
Waning Gibbous, 75% visible
METAR KNYL 241457Z AUTO 16028G34KT 10SM BKN015 33/22 A2985 RMK AO2 PK WND 16038/1429 SLP104 T03280222 53030 $

10-Day Weather Forecast

Almanac

Astronomy

Jul. 24, 2016 Rise Set
Actual Time
Civil Twilight
Nautical Twilight
Astronomical Twilight
Moon
Length of Visible Light
Length of Day
Tomorrow will be .
, % of the Moon is Illuminated

Today's Extremes

State Highs State Lows

Community

WunderPhotos

Upload Photos

1,927,092 photos uploaded!

WunderBlog® & News

Nearby

Air Quality

  Air Quality AQ Index Pollutant
Not available.

Snow Depth

Station Depth Elevation

Earthquake Activity

City Distance Mag. Time & Date
Minimum magnitude displayed is 2.5.

Coastal Water Temperatures

Place Temperature

Stations

Nearby Weather Stations

Station Location Temp. Windchill Dew Point Humidity Wind Precip. Elev Updated Type
                   

Watches & Warnings

There are currently no watches in effect.